Red Diamond — A8UM9 — position and weather

sailwx.info

Track history (hours):
 
Tides and Currents Weather Stations Pressure Air Temp Water Temp Dewpoint Dewpoint Depression Visibility Wind Speed Wind Dir Waves Ship Positions

Red Diamond

Last reported at 2015-Apr-12 06:08 UTC. Time now 2015-Apr-18 15:11 UTC.
Position N 36°57' E 007°50'.

Length 190 m; draft 6.6 m.

Type: Cargo ship. MMSI: 636014524.

Date/timePositionNaut miles runAvg speedWind from/ knotsBaromVisibWave heightAir tempDewpointWater temp
2015-Apr-12 06:08N 36°57' E 007°50'6 0.5
2015-Apr-11 17:07N 37°01' E 007°55'611.3
2015-Apr-11 16:33N 37°08' E 007°55'1111.3
2015-Apr-11 15:33N 37°19' E 007°56'1110.0
2015-Apr-11 14:29N 37°30' E 007°55'1 1.5
2015-Apr-11 13:30N 37°29' E 007°56'1 1.2
2015-Apr-11 12:31N 37°28' E 007°57'3 1.0
2015-Apr-11 09:33N 37°25' E 007°59'1110.5
2015-Apr-11 08:28N 37°36' E 007°55'9 8.0
2015-Apr-11 07:19N 37°45' E 007°51'1 1.1
2015-Apr-11 06:32N 37°44' E 007°52'1 0.9
2015-Apr-11 05:33N 37°44' E 007°53'1 0.8
2015-Apr-11 04:30N 37°43' E 007°54'1 0.7
2015-Apr-11 03:34N 37°43' E 007°54'1 0.7
2015-Apr-11 02:31N 37°42' E 007°55'1 0.9
2015-Apr-11 01:30N 37°41' E 007°55'1 1.0
2015-Apr-11 00:30N 37°40' E 007°55'3 1.5
2015-Apr-10 22:17N 37°37' E 007°56'2 1.1
2015-Apr-10 20:27N 37°35' E 007°57'2 1.8
2015-Apr-10 19:27N 37°33' E 007°58'4 1.8
2015-Apr-10 17:26N 37°30' E 007°59'8 9.5
2015-Apr-10 16:33N 37°27' E 007°49'10 9.7
2015-Apr-10 15:29N 37°23' E 007°37'10 9.8
2015-Apr-10 14:27N 37°19' E 007°26'2 2.6
2015-Apr-10 13:31N 37°16' E 007°26'  
2015-Apr-06 17:33N 36°41' E 013°33'6 5.9
2015-Apr-06 16:33N 36°39' E 013°40'6 5.5
2015-Apr-06 15:33N 36°37' E 013°46'6 5.6
2015-Apr-06 14:33N 36°35' E 013°53'5 5.2
2015-Apr-06 13:33N 36°34' E 013°59'6 5.8
2015-Apr-06 12:33N 36°32' E 014°06'6 5.7
2015-Apr-06 11:33N 36°30' E 014°12'6 5.8
2015-Apr-06 10:33N 36°28' E 014°19'5 5.4
2015-Apr-06 09:33N 36°27' E 014°26'10 4.6
2015-Apr-06 07:17N 36°26' E 014°39'  
2015-Apr-02 20:14N 40°44' E 028°32'710.0
2015-Apr-02 19:33N 40°40' E 028°39'10 9.9
2015-Apr-02 18:33N 40°30' E 028°42'13 9.6
2015-Apr-02 17:11N 40°26' E 028°58'5 8.2
2015-Apr-02 16:33N 40°25' E 029°05'0 0.1
2015-Apr-02 13:24N 40°25' E 029°05'0 0.0
2015-Apr-02 12:30N 40°25' E 029°05'0 0.0
2015-Apr-02 07:30N 40°25' E 029°05'  
Track history (hours):
 
Tides and Currents Weather Stations Pressure Air Temp Water Temp Dewpoint Dewpoint Depression Visibility Wind Speed Wind Dir Waves Ship Positions

Red Diamond

Last reported at 2015-Apr-12 06:08 UTC. Time now 2015-Apr-18 15:11 UTC.
Position N 36°57' E 007°50'.

Length 190 m; draft 6.6 m.

Type: Cargo ship. MMSI: 636014524.

Date/timePositionNaut miles runAvg speedWind from/ knotsBaromVisibWave heightAir tempDewpointWater temp
2015-Apr-12 06:08N 36°57' E 007°50'6 0.5
2015-Apr-11 17:07N 37°01' E 007°55'611.3
2015-Apr-11 16:33N 37°08' E 007°55'1111.3
2015-Apr-11 15:33N 37°19' E 007°56'1110.0
2015-Apr-11 14:29N 37°30' E 007°55'1 1.5
2015-Apr-11 13:30N 37°29' E 007°56'1 1.2
2015-Apr-11 12:31N 37°28' E 007°57'3 1.0
2015-Apr-11 09:33N 37°25' E 007°59'1110.5
2015-Apr-11 08:28N 37°36' E 007°55'9 8.0
2015-Apr-11 07:19N 37°45' E 007°51'1 1.1
2015-Apr-11 06:32N 37°44' E 007°52'1 0.9
2015-Apr-11 05:33N 37°44' E 007°53'1 0.8
2015-Apr-11 04:30N 37°43' E 007°54'1 0.7
2015-Apr-11 03:34N 37°43' E 007°54'1 0.7
2015-Apr-11 02:31N 37°42' E 007°55'1 0.9
2015-Apr-11 01:30N 37°41' E 007°55'1 1.0
2015-Apr-11 00:30N 37°40' E 007°55'3 1.5
2015-Apr-10 22:17N 37°37' E 007°56'2 1.1
2015-Apr-10 20:27N 37°35' E 007°57'2 1.8
2015-Apr-10 19:27N 37°33' E 007°58'4 1.8
2015-Apr-10 17:26N 37°30' E 007°59'8 9.5
2015-Apr-10 16:33N 37°27' E 007°49'10 9.7
2015-Apr-10 15:29N 37°23' E 007°37'10 9.8
2015-Apr-10 14:27N 37°19' E 007°26'2 2.6
2015-Apr-10 13:31N 37°16' E 007°26'  
2015-Apr-06 17:33N 36°41' E 013°33'6 5.9
2015-Apr-06 16:33N 36°39' E 013°40'6 5.5
2015-Apr-06 15:33N 36°37' E 013°46'6 5.6
2015-Apr-06 14:33N 36°35' E 013°53'5 5.2
2015-Apr-06 13:33N 36°34' E 013°59'6 5.8
2015-Apr-06 12:33N 36°32' E 014°06'6 5.7
2015-Apr-06 11:33N 36°30' E 014°12'6 5.8
2015-Apr-06 10:33N 36°28' E 014°19'5 5.4
2015-Apr-06 09:33N 36°27' E 014°26'10 4.6
2015-Apr-06 07:17N 36°26' E 014°39'  
2015-Apr-02 20:14N 40°44' E 028°32'710.0
2015-Apr-02 19:33N 40°40' E 028°39'10 9.9
2015-Apr-02 18:33N 40°30' E 028°42'13 9.6
2015-Apr-02 17:11N 40°26' E 028°58'5 8.2
2015-Apr-02 16:33N 40°25' E 029°05'0 0.1
2015-Apr-02 13:24N 40°25' E 029°05'0 0.0
2015-Apr-02 12:30N 40°25' E 029°05'0 0.0
2015-Apr-02 07:30N 40°25' E 029°05'  

Dump ship's entire track history